CDT,Max TemperatureF,Mean TemperatureF,Min TemperatureF,Max Dew PointF,MeanDew PointF,Min DewpointF,Max Humidity, Mean Humidity, Min Humidity, Max Sea Level PressureIn, Mean Sea Level PressureIn, Min Sea Level PressureIn, Max VisibilityMiles, Mean VisibilityMiles, Min VisibilityMiles, Max Wind SpeedMPH, Mean Wind SpeedMPH, Max Gust SpeedMPH,PrecipitationIn, CloudCover, Events, WindDirDegrees
2013-8-1,91,80,69,73,71,70,100,76,49,30.11,30.05,29.96,10,10,7,9,2,,0.00,0,,109
2013-8-2,95,84,73,79,76,70,100,78,56,29.97,29.88,29.82,10,10,10,14,5,18,0.00,0,,170
2013-8-3,91,84,77,79,75,72,94,77,63,30.07,29.97,29.87,10,10,10,14,7,23,0.00,0,Rain,142
2013-8-4,91,83,75,79,77,75,100,84,63,30.08,30.01,29.94,10,10,7,8,2,,0.00,0,Rain,139
2013-8-5,96,84,73,79,76,72,94,74,53,29.96,29.90,29.81,10,10,10,13,5,20,0.00,0,,187
2013-8-6,96,84,73,77,74,70,88,68,53,29.89,29.83,29.78,10,10,10,14,5,18,0.00,0,,183
2013-8-7,95,84,73,79,74,72,94,70,53,29.89,29.85,29.81,10,10,10,13,4,16,0.00,0,,97
2013-8-8,87,79,71,77,75,70,100,85,70,29.95,29.90,29.86,10,10,4,10,5,18,0.18,2,Rain,97
2013-8-9,86,77,68,75,71,68,100,90,66,30.09,29.99,29.91,10,10,3,18,5,33,0.64,3,Rain,11
2013-8-10,84,74,64,72,69,64,100,87,66,30.16,30.11,30.06,10,10,5,10,5,,0.00,4,,29
2013-8-11,93,80,66,75,72,66,100,81,55,30.12,30.07,30.01,10,10,7,5,0,,0.00,2,,59
2013-8-12,86,78,71,77,75,72,100,92,74,30.08,30.01,29.95,10,9,2,18,2,26,0.72,1,Rain,72
2013-8-13,84,76,69,77,72,70,100,92,74,30.08,30.03,29.99,10,10,2,12,4,20,0.30,4,Rain,67
2013-8-14,86,74,62,70,67,63,100,83,55,30.14,30.09,30.04,10,10,7,8,3,,0.00,1,,69
2013-8-15,80,71,62,70,66,61,100,82,69,30.12,30.07,30.00,10,10,4,20,2,28,0.34,2,Rain,146
2013-8-16,82,71,60,70,66,61,100,86,65,30.12,30.08,30.00,10,10,7,8,3,,0.11,4,Rain,99
2013-8-17,80,70,60,68,64,61,100,82,58,30.16,30.12,30.07,10,9,3,8,1,,0.00,1,,59
2013-8-18,86,73,60,68,64,59,100,78,51,30.15,30.10,30.05,10,9,5,9,1,,0.00,1,,148
2013-8-19,86,74,62,72,68,63,100,82,58,30.11,30.06,30.00,10,10,7,9,2,17,0.00,1,,151
2013-8-20,89,78,68,72,68,64,100,75,49,30.08,30.04,29.99,10,10,10,9,2,,0.00,1,,162
2013-8-21,91,78,64,72,68,64,100,75,49,30.10,30.06,30.03,10,10,10,12,2,16,0.00,0,,185
2013-8-22,91,80,68,73,71,66,94,76,52,30.11,30.05,29.99,10,10,7,8,3,,0.00,0,,167
2013-8-23,91,81,71,79,73,70,94,75,55,30.06,30.02,29.97,10,10,7,10,4,16,0.00,0,,158
2013-8-24,95,83,71,77,73,72,100,79,49,30.12,30.08,30.03,10,10,5,9,3,,0.00,0,,144
2013-8-25,91,80,69,75,73,68,100,77,55,30.19,30.15,30.11,10,10,7,9,3,,0.00,0,,158
2013-8-26,91,80,69,73,72,68,100,76,52,30.20,30.15,30.10,10,10,10,13,5,9,0.00,0,,178
2013-8-27,89,78,68,73,71,66,100,80,55,30.13,30.08,30.04,10,10,10,12,3,18,0.00,0,,182
2013-8-28,91,80,68,75,72,68,100,80,55,30.08,30.04,30.00,10,10,7,16,3,22,0.00,0,,200
2013-8-29,96,84,71,79,72,70,100,75,44,30.07,30.03,29.98,10,10,7,9,2,,0.00,1,,212
2013-8-30,96,84,71,75,72,70,94,71,44,30.01,29.95,29.87,10,10,10,12,2,10,0.00,0,,200
2013-8-31,100,86,71,77,72,68,94,69,44,29.90,29.85,29.79,10,10,10,8,2,,0.00,0,,192